Time;durP1;ratioP1;P1;durP2;ratioP2;P2;SDS_P1;SDS_P2;PMS_P1;PMS_P2;Temp;Humidity;BMP_temperature;BMP_pressure;BME280_temperature;BME280_humidity;BME280_pressure;Samples;Min_cycle;Max_cycle;Signal;HPM_P1;HPM_P2
2023/12/15 00:00:14;;;;;;;9.13;8.63;;;;;;;6.55;100.00;92572.97;5103311;28;20204;-75
2023/12/15 00:02:39;;;;;;;8.73;8.33;;;;;;;6.32;100.00;92544.88;5097973;28;20228;-76
2023/12/15 00:05:05;;;;;;;9.00;8.60;;;;;;;6.32;100.00;92553.44;5111221;28;20256;-75
2023/12/15 00:07:30;;;;;;;9.03;8.63;;;;;;;6.35;100.00;92567.72;5110577;28;20201;-75
2023/12/15 00:09:56;;;;;;;8.67;8.27;;;;;;;6.44;100.00;92576.56;5110386;28;20247;-75
2023/12/15 00:12:21;;;;;;;9.93;9.53;;;;;;;6.33;100.00;92567.19;5112426;28;20180;-76
2023/12/15 00:14:46;;;;;;;9.17;8.83;;;;;;;6.57;100.00;92586.44;5115760;28;20168;-75
2023/12/15 00:17:12;;;;;;;8.33;8.03;;;;;;;6.45;100.00;92589.28;5113515;28;20215;-75
2023/12/15 00:19:37;;;;;;;9.53;9.13;;;;;;;6.25;100.00;92586.59;5112060;28;20230;-75
2023/12/15 00:22:03;;;;;;;8.87;8.57;;;;;;;6.42;100.00;92594.19;5111107;28;20206;-75
2023/12/15 00:24:28;;;;;;;8.63;8.10;;;;;;;6.37;100.00;92591.56;5110269;28;20231;-75
2023/12/15 00:26:54;;;;;;;9.57;9.27;;;;;;;6.25;100.00;92585.81;5093048;28;20237;-75
2023/12/15 00:29:20;;;;;;;9.93;9.53;;;;;;;6.30;100.00;92604.75;5110546;28;20224;-75
2023/12/15 00:31:46;;;;;;;9.60;9.20;;;;;;;6.28;100.00;92603.44;5111338;28;20171;-75
2023/12/15 00:34:11;;;;;;;10.10;9.70;;;;;;;6.26;100.00;92590.75;5110119;28;20216;-75
2023/12/15 00:36:36;;;;;;;9.30;9.00;;;;;;;6.22;100.00;92600.06;5110914;28;20172;-75
2023/12/15 00:39:02;;;;;;;8.90;8.40;;;;;;;6.09;100.00;92581.56;5110221;28;20232;-75
2023/12/15 00:41:27;;;;;;;8.60;8.30;;;;;;;6.10;100.00;92611.66;5110591;28;20270;-76
2023/12/15 00:43:53;;;;;;;8.60;8.30;;;;;;;5.90;100.00;92591.56;5108754;28;20228;-75
2023/12/15 00:46:18;;;;;;;9.60;9.30;;;;;;;6.31;100.00;92595.16;5123006;28;20219;-75
2023/12/15 00:48:43;;;;;;;8.93;8.63;;;;;;;6.15;100.00;92624.63;5101728;28;20246;-74
2023/12/15 00:51:09;;;;;;;8.97;8.67;;;;;;;6.48;100.00;92619.09;5110409;28;20188;-75
2023/12/15 00:53:34;;;;;;;8.93;8.53;;;;;;;6.20;100.00;92633.22;5109770;28;20326;-75
2023/12/15 00:56:02;;;;;;;19.60;15.63;;;;;;;6.21;100.00;92608.84;5110578;28;20194;-75
2023/12/15 00:58:28;;;;;;;15.23;13.67;;;;;;;6.24;100.00;92607.59;5110130;28;20232;-75
2023/12/15 01:00:53;;;;;;;11.20;10.50;;;;;;;6.26;100.00;92614.06;5110841;28;20203;-75
2023/12/15 01:03:19;;;;;;;9.70;9.30;;;;;;;6.30;100.00;92641.03;5109510;28;20226;-75
2023/12/15 01:05:44;;;;;;;9.57;9.27;;;;;;;6.20;100.00;92627.25;5092154;28;20188;-75
2023/12/15 01:08:10;;;;;;;9.50;9.10;;;;;;;6.28;100.00;92637.94;5109863;28;20227;-75
2023/12/15 01:10:35;;;;;;;9.13;8.83;;;;;;;6.39;100.00;92638.75;5110480;28;20172;-75
2023/12/15 01:13:01;;;;;;;9.27;8.97;;;;;;;6.25;100.00;92633.25;5109442;28;20830;-75
2023/12/15 01:15:26;;;;;;;9.47;9.07;;;;;;;6.45;100.00;92646.31;5092339;28;20184;-75
2023/12/15 01:17:52;;;;;;;9.37;8.97;;;;;;;6.40;100.00;92633.31;5109529;28;20212;-75
2023/12/15 01:20:17;;;;;;;9.57;9.17;;;;;;;6.30;100.00;92638.44;5113494;28;20191;-75
2023/12/15 01:22:43;;;;;;;10.20;9.70;;;;;;;6.34;100.00;92633.53;5115650;28;20284;-75
2023/12/15 01:25:08;;;;;;;9.90;9.50;;;;;;;6.50;100.00;92646.34;5116957;28;20211;-75
2023/12/15 01:27:34;;;;;;;10.20;9.80;;;;;;;6.41;100.00;92655.63;5116228;28;20267;-75
2023/12/15 01:29:59;;;;;;;9.37;8.97;;;;;;;6.15;100.00;92655.72;5117277;28;20263;-75
2023/12/15 01:32:24;;;;;;;8.50;8.20;;;;;;;6.22;100.00;92661.47;5116374;28;20187;-75
2023/12/15 01:34:50;;;;;;;8.10;7.90;;;;;;;6.20;100.00;92650.56;5099124;28;20191;-75
2023/12/15 01:37:15;;;;;;;8.57;8.27;;;;;;;6.17;100.00;92661.44;5116849;28;20283;-75
2023/12/15 01:39:40;;;;;;;9.50;9.20;;;;;;;6.15;100.00;92661.69;5116208;28;20227;-75
2023/12/15 01:42:06;;;;;;;8.60;8.30;;;;;;;6.03;100.00;92655.91;5112614;28;20205;-75
2023/12/15 01:44:33;;;;;;;8.30;8.00;;;;;;;6.01;100.00;92667.56;5116444;28;20988;-74
2023/12/15 01:46:58;;;;;;;9.33;9.03;;;;;;;6.01;100.00;92655.38;5116629;28;20191;-74
2023/12/15 01:49:24;;;;;;;8.37;8.07;;;;;;;6.00;100.00;92655.63;5116377;28;20212;-74
2023/12/15 01:51:49;;;;;;;9.40;9.10;;;;;;;6.07;100.00;92674.34;5116789;28;20199;-74
2023/12/15 01:54:15;;;;;;;9.23;8.93;;;;;;;6.07;100.00;92667.34;5116444;28;20219;-75
2023/12/15 01:56:40;;;;;;;9.93;9.47;;;;;;;6.06;100.00;92675.38;5116639;28;20190;-74
2023/12/15 01:59:05;;;;;;;9.43;9.13;;;;;;;6.26;100.00;92663.31;5116474;28;20231;-74
2023/12/15 02:01:31;;;;;;;8.17;7.87;;;;;;;6.07;100.00;92674.34;5116685;28;20184;-75
2023/12/15 02:03:56;;;;;;;8.53;8.23;;;;;;;5.95;100.00;92671.13;5115802;28;20220;-74
2023/12/15 02:06:21;;;;;;;9.90;9.50;;;;;;;5.75;100.00;92632.91;5116372;28;20190;-75
2023/12/15 02:08:47;;;;;;;9.07;8.77;;;;;;;6.03;100.00;92642.19;5116099;28;20241;-74
2023/12/15 02:11:13;;;;;;;9.13;8.83;;;;;;;5.80;100.00;92652.88;5116928;28;20264;-75
2023/12/15 02:13:38;;;;;;;10.77;10.37;;;;;;;6.02;100.00;92675.06;5115459;28;20753;-74
2023/12/15 02:16:04;;;;;;;10.03;9.70;;;;;;;6.23;100.00;92674.19;5115842;28;20211;-75
2023/12/15 02:18:29;;;;;;;10.77;10.13;;;;;;;5.97;100.00;92685.41;5115290;28;20220;-74
2023/12/15 02:20:55;;;;;;;10.03;9.67;;;;;;;5.93;100.00;92668.78;5119718;28;20180;-74
2023/12/15 02:23:20;;;;;;;10.30;9.90;;;;;;;5.87;100.00;92645.69;5115599;28;20219;-74
2023/12/15 02:25:45;;;;;;;10.63;10.23;;;;;;;5.95;100.00;92673.72;5115349;28;20188;-75
2023/12/15 02:28:11;;;;;;;10.83;10.33;;;;;;;5.65;100.00;92655.34;5116192;28;20279;-74
2023/12/15 02:30:36;;;;;;;11.13;10.63;;;;;;;6.00;100.00;92687.50;5115990;28;20172;-74
2023/12/15 02:33:01;;;;;;;10.10;9.60;;;;;;;5.87;100.00;92671.59;5112072;28;20232;-75
2023/12/15 02:35:27;;;;;;;11.67;11.07;;;;;;;5.96;100.00;92707.16;5111211;28;20243;-75
2023/12/15 02:37:52;;;;;;;11.77;11.17;;;;;;;6.10;100.00;92704.94;5112463;28;20219;-75
2023/12/15 02:40:17;;;;;;;11.57;10.97;;;;;;;6.06;100.00;92709.06;5112790;28;20180;-75
2023/12/15 02:42:43;;;;;;;10.90;10.37;;;;;;;5.99;100.00;92703.31;5112079;28;20235;-74
2023/12/15 02:45:08;;;;;;;12.17;11.47;;;;;;;6.03;100.00;92684.44;5112567;28;20254;-75
2023/12/15 02:47:34;;;;;;;12.33;11.60;;;;;;;6.12;100.00;92708.06;5111927;28;20180;-75
2023/12/15 02:49:59;;;;;;;13.93;12.83;;;;;;;6.15;100.00;92704.97;5112802;28;20184;-74
2023/12/15 02:52:25;;;;;;;11.87;11.17;;;;;;;6.12;100.00;92715.81;5111892;28;20181;-74
2023/12/15 02:54:50;;;;;;;12.27;11.53;;;;;;;5.90;100.00;92718.53;5112052;28;20180;-74
2023/12/15 02:57:15;;;;;;;12.93;12.13;;;;;;;5.79;100.00;92692.78;5112612;28;20193;-75
2023/12/15 02:59:41;;;;;;;11.13;10.53;;;;;;;5.91;100.00;92719.31;5112409;28;20253;-75
2023/12/15 03:02:06;;;;;;;12.43;11.70;;;;;;;6.01;100.00;92721.97;5112478;28;20184;-74
2023/12/15 03:04:31;;;;;;;12.23;11.47;;;;;;;5.93;100.00;92727.63;5093928;28;20301;-74
2023/12/15 03:06:58;;;;;;;11.30;10.67;;;;;;;6.11;100.00;92733.22;5112465;28;20234;-75
2023/12/15 03:09:23;;;;;;;10.93;10.23;;;;;;;6.05;100.00;92736.00;5111527;28;20760;-74
2023/12/15 03:11:49;;;;;;;11.43;10.87;;;;;;;5.93;100.00;92730.22;5111248;28;20180;-75
2023/12/15 03:14:14;;;;;;;10.90;10.40;;;;;;;5.89;100.00;92713.59;5112149;28;20734;-75
2023/12/15 03:16:39;;;;;;;11.07;10.57;;;;;;;5.86;100.00;92730.41;5119154;28;20202;-75
2023/12/15 03:19:05;;;;;;;11.73;11.03;;;;;;;5.93;100.00;92727.63;5113493;28;20220;-74
2023/12/15 03:21:30;;;;;;;12.33;11.53;;;;;;;5.95;100.00;92738.50;5123073;28;20180;-75
2023/12/15 03:23:55;;;;;;;12.00;11.30;;;;;;;6.11;100.00;92742.78;5111570;28;20287;-75
2023/12/15 03:26:21;;;;;;;12.43;11.73;;;;;;;5.81;100.00;92717.38;5112608;28;20199;-75
2023/12/15 03:28:46;;;;;;;12.73;11.90;;;;;;;5.78;100.00;92738.59;5111914;28;20273;-75
2023/12/15 03:31:11;;;;;;;13.03;12.03;;;;;;;5.80;100.00;92735.75;5112424;28;20184;-73
2023/12/15 03:33:37;;;;;;;13.17;12.27;;;;;;;5.91;100.00;92745.22;5111380;28;20261;-75
2023/12/15 03:36:04;;;;;;;14.90;13.70;;;;;;;5.93;100.00;92745.75;5094590;28;20176;-75
2023/12/15 03:38:29;;;;;;;13.53;12.43;;;;;;;5.95;100.00;92743.69;5111240;28;20223;-74
2023/12/15 03:40:55;;;;;;;13.37;12.27;;;;;;;5.85;100.00;92749.56;5112066;28;20244;-74
2023/12/15 03:43:20;;;;;;;13.97;12.97;;;;;;;5.91;100.00;92753.00;5110827;28;20226;-74
2023/12/15 03:45:46;;;;;;;13.87;12.93;;;;;;;5.71;100.00;92743.19;5111894;28;20196;-74
2023/12/15 03:48:11;;;;;;;15.07;13.80;;;;;;;5.77;100.00;92746.63;5111310;28;20223;-74
2023/12/15 03:50:36;;;;;;;14.13;13.07;;;;;;;5.79;100.00;92745.34;5111644;28;20176;-75
2023/12/15 03:53:02;;;;;;;14.90;13.80;;;;;;;5.87;100.00;92762.25;5111197;28;20273;-75
2023/12/15 03:55:27;;;;;;;14.23;13.27;;;;;;;5.94;100.00;92768.03;5111853;28;20191;-74
2023/12/15 03:57:53;;;;;;;14.67;13.57;;;;;;;5.90;100.00;92772.16;5110821;28;20254;-75
2023/12/15 04:00:20;;;;;;;14.03;13.03;;;;;;;5.78;100.00;92748.16;5111983;28;20192;-75
2023/12/15 04:02:46;;;;;;;13.87;12.77;;;;;;;5.89;100.00;92755.81;5110689;28;20250;-74
2023/12/15 04:05:12;;;;;;;14.37;13.27;;;;;;;5.89;100.00;92755.81;5111777;28;20207;-75
2023/12/15 04:07:37;;;;;;;14.80;13.70;;;;;;;5.97;100.00;92763.16;5103433;28;20749;-75
2023/12/15 04:10:03;;;;;;;14.73;13.63;;;;;;;6.02;100.00;92762.41;5105338;28;20189;-75
2023/12/15 04:12:28;;;;;;;14.50;13.40;;;;;;;5.93;100.00;92766.50;5110375;28;20180;-75
2023/12/15 04:14:54;;;;;;;15.67;14.33;;;;;;;5.51;100.00;92711.16;5093094;28;20184;-75
2023/12/15 04:17:19;;;;;;;16.57;15.13;;;;;;;6.10;100.00;92765.31;5093253;28;20259;-75
2023/12/15 04:19:44;;;;;;;17.00;15.43;;;;;;;5.82;100.00;92739.69;5110609;28;20193;-75
2023/12/15 04:22:10;;;;;;;16.23;14.93;;;;;;;5.68;100.00;92759.22;5092818;28;20191;-75
2023/12/15 04:24:35;;;;;;;15.30;14.00;;;;;;;5.93;100.00;92787.22;5092665;28;20220;-75
2023/12/15 04:27:00;;;;;;;15.07;13.87;;;;;;;5.86;100.00;92768.47;5111118;28;20199;-75
2023/12/15 04:29:26;;;;;;;15.80;14.43;;;;;;;5.76;100.00;92779.50;5110887;28;20227;-75
2023/12/15 04:31:51;;;;;;;16.47;15.17;;;;;;;5.74;100.00;92780.78;5110344;28;20176;-74
2023/12/15 04:34:17;;;;;;;15.30;14.10;;;;;;;5.59;100.00;92758.09;5092664;28;20224;-76
2023/12/15 04:36:42;;;;;;;15.23;14.23;;;;;;;5.73;100.00;92767.03;5108138;28;20183;-75
2023/12/15 04:39:07;;;;;;;15.20;14.10;;;;;;;5.88;100.00;92787.91;5105442;28;20250;-75
2023/12/15 04:41:33;;;;;;;16.13;14.80;;;;;;;5.95;100.00;92782.53;5110036;28;20188;-75
2023/12/15 04:43:58;;;;;;;16.60;15.37;;;;;;;5.89;100.00;92780.94;5092051;28;20224;-76
2023/12/15 04:46:24;;;;;;;14.57;13.47;;;;;;;5.89;100.00;92806.84;5106440;28;20191;-78
2023/12/15 04:48:50;;;;;;;15.17;13.83;;;;;;;5.91;100.00;92804.81;5110082;28;20219;-88
2023/12/15 04:51:15;;;;;;;15.40;13.80;;;;;;;5.89;100.00;92812.03;5110479;28;20205;-87
2023/12/15 04:53:40;;;;;;;15.63;14.50;;;;;;;5.88;100.00;92800.13;5107581;28;20223;-80
2023/12/15 04:56:06;;;;;;;14.87;13.73;;;;;;;5.95;100.00;92818.81;5111081;28;20204;-82
2023/12/15 04:58:31;;;;;;;15.90;14.80;;;;;;;5.99;100.00;92817.31;5110187;28;20358;-85
2023/12/15 05:00:57;;;;;;;15.07;13.77;;;;;;;5.96;100.00;92823.75;5108642;28;20188;-80
2023/12/15 05:03:22;;;;;;;14.60;13.60;;;;;;;6.00;100.00;92813.69;5106591;28;20228;-77
2023/12/15 05:05:48;;;;;;;16.07;14.80;;;;;;;5.99;100.00;92815.50;5103703;28;20183;-78
2023/12/15 05:08:13;;;;;;;14.17;13.03;;;;;;;5.75;100.00;92800.47;5109301;28;20284;-82
2023/12/15 05:10:39;;;;;;;14.07;13.07;;;;;;;6.02;100.00;92806.47;5103515;28;20207;-80
2023/12/15 05:13:04;;;;;;;13.10;12.20;;;;;;;5.84;100.00;92819.75;5107116;28;20212;-76
2023/12/15 05:15:29;;;;;;;14.67;13.67;;;;;;;5.80;100.00;92823.84;5108980;28;20226;-80
2023/12/15 05:17:55;;;;;;;13.37;12.47;;;;;;;5.99;100.00;92827.69;5099755;28;20238;-78
2023/12/15 05:20:20;;;;;;;13.17;12.27;;;;;;;5.90;100.00;92826.56;5084845;28;20184;-78
2023/12/15 05:22:46;;;;;;;13.70;12.73;;;;;;;5.80;100.00;92818.66;5107122;28;20300;-80
2023/12/15 05:25:11;;;;;;;13.17;12.17;;;;;;;5.93;100.00;92815.72;5109265;28;20212;-75
2023/12/15 05:27:36;;;;;;;12.70;11.90;;;;;;;5.82;100.00;92832.19;5107906;28;20184;-75
2023/12/15 05:30:02;;;;;;;14.20;13.20;;;;;;;5.95;100.00;92834.38;5109793;28;20202;-76
2023/12/15 05:32:28;;;;;;;13.20;12.30;;;;;;;5.94;100.00;92850.94;5108541;28;20176;-74
2023/12/15 05:34:53;;;;;;;12.53;11.70;;;;;;;5.85;100.00;92844.66;5107236;28;20207;-73
2023/12/15 05:37:18;;;;;;;13.97;12.97;;;;;;;5.93;100.00;92831.25;5102777;28;20189;-74
2023/12/15 05:39:44;;;;;;;13.90;13.00;;;;;;;6.49;100.00;92854.03;5108285;28;20208;-76
2023/12/15 05:42:10;;;;;;;13.83;12.83;;;;;;;6.21;100.00;92846.56;5108369;28;20180;-73
2023/12/15 05:44:39;;;;;;;14.37;13.27;;;;;;;6.03;100.00;92862.44;5108461;28;20219;-73
2023/12/15 05:47:04;;;;;;;14.03;12.87;;;;;;;6.02;100.00;92843.50;5108629;28;20217;-73
2023/12/15 05:49:29;;;;;;;14.37;13.10;;;;;;;5.91;100.00;92861.81;5108780;28;20228;-73
2023/12/15 05:51:55;;;;;;;14.63;13.23;;;;;;;5.94;100.00;92856.13;5109752;28;20180;-73
2023/12/15 05:54:20;;;;;;;13.67;12.73;;;;;;;5.63;100.00;92849.03;5108635;28;20309;-72
2023/12/15 05:56:45;;;;;;;13.83;12.83;;;;;;;6.08;100.00;92870.25;5108489;28;20205;-72
2023/12/15 05:59:11;;;;;;;13.53;12.63;;;;;;;5.95;100.00;92857.69;5108030;28;20216;-73
2023/12/15 06:01:36;;;;;;;38.00;26.70;;;;;;;6.01;100.00;92873.03;5107676;28;20179;-73
2023/12/15 06:04:01;;;;;;;20.80;18.60;;;;;;;5.90;100.00;92875.78;5107826;28;20245;-73
2023/12/15 06:06:27;;;;;;;16.97;15.40;;;;;;;5.74;100.00;92874.03;5100990;28;20192;-73
2023/12/15 06:08:52;;;;;;;16.03;14.33;;;;;;;5.82;100.00;92873.63;5111451;28;20212;-85
2023/12/15 06:11:18;;;;;;;14.80;13.60;;;;;;;5.88;100.00;92881.19;5113234;28;20287;-77
2023/12/15 06:13:43;;;;;;;15.10;13.83;;;;;;;5.80;100.00;92886.00;5103081;28;21091;-79
2023/12/15 06:16:17;;;;;;;19.50;17.53;;;;;;;5.75;100.00;92886.72;5112795;28;20184;-78
2023/12/15 06:18:43;;;;;;;16.57;15.20;;;;;;;5.62;100.00;92873.38;5110886;28;20231;-80
2023/12/15 06:21:08;;;;;;;18.73;17.10;;;;;;;5.74;100.00;92886.97;5124930;28;20690;-80
2023/12/15 06:23:33;;;;;;;16.67;15.27;;;;;;;5.51;100.00;92882.03;5112371;28;20223;-77
2023/12/15 06:25:58;;;;;;;14.03;13.07;;;;;;;5.57;100.00;92891.44;5075865;28;20203;-79
2023/12/15 06:28:24;;;;;;;15.23;14.07;;;;;;;5.79;100.00;92900.00;5105182;28;20235;-76
2023/12/15 06:30:49;;;;;;;15.33;14.10;;;;;;;5.82;100.00;92894.34;5108827;28;20210;-76
2023/12/15 06:33:14;;;;;;;15.87;14.57;;;;;;;5.67;100.00;92904.47;5094093;28;20295;-77
2023/12/15 06:35:40;;;;;;;16.00;14.57;;;;;;;5.81;100.00;92910.88;5107341;28;20199;-77
2023/12/15 06:38:05;;;;;;;19.63;17.73;;;;;;;5.57;100.00;92912.91;5108528;28;20228;-77
2023/12/15 06:40:31;;;;;;;16.37;14.73;;;;;;;5.74;100.00;92910.28;5112551;28;20184;-76
2023/12/15 06:42:56;;;;;;;16.40;14.90;;;;;;;5.88;100.00;92919.28;5111248;28;20250;-76
2023/12/15 06:45:22;;;;;;;15.87;14.77;;;;;;;5.91;100.00;92919.59;5112117;28;20219;-75
2023/12/15 06:47:47;;;;;;;15.33;14.03;;;;;;;5.57;100.00;92901.78;5110976;28;20274;-76
2023/12/15 06:50:12;;;;;;;16.97;15.67;;;;;;;5.84;100.00;92925.97;5111735;28;20188;-75
2023/12/15 06:52:38;;;;;;;16.37;15.07;;;;;;;5.78;100.00;92929.50;5111278;28;20249;-75
2023/12/15 06:55:04;;;;;;;16.87;15.43;;;;;;;5.77;100.00;92922.75;5109153;28;20828;-77
2023/12/15 06:57:29;;;;;;;33.33;25.57;;;;;;;5.62;100.00;92944.06;5110914;28;20188;-80
2023/12/15 06:59:55;;;;;;;18.57;16.87;;;;;;;5.56;100.00;92946.81;5112433;28;20224;-76
2023/12/15 07:02:22;;;;;;;14.50;13.33;;;;;;;5.66;100.00;92946.97;5112989;28;20199;-76
2023/12/15 07:04:47;;;;;;;14.40;13.27;;;;;;;5.57;100.00;92943.22;5109609;28;20200;-77
2023/12/15 07:07:12;;;;;;;13.90;12.93;;;;;;;5.61;100.00;92950.28;5109209;28;20192;-78
2023/12/15 07:09:38;;;;;;;15.17;14.07;;;;;;;5.64;100.00;92949.00;5111695;28;20299;-79
2023/12/15 07:12:03;;;;;;;14.07;13.17;;;;;;;5.67;100.00;92951.91;5112600;28;20915;-89
2023/12/15 07:14:29;;;;;;;13.83;12.83;;;;;;;5.53;100.00;92953.28;5109880;28;20223;-77
2023/12/15 07:16:54;;;;;;;15.23;13.67;;;;;;;7.38;100.00;92962.13;5101780;28;20191;-76
2023/12/15 07:19:20;;;;;;;13.97;12.83;;;;;;;6.22;100.00;92967.34;5115242;28;20219;-76
2023/12/15 07:23:45;;;;;;;13.97;13.07;;;;;;;7.93;96.81;92954.66;5094297;27;20556;-75
2023/12/15 07:26:10;;;;;;;13.30;12.50;;;;;;;6.40;100.00;92949.66;5084589;28;20204;-75
2023/12/15 07:28:35;;;;;;;14.40;13.40;;;;;;;6.13;100.00;92966.97;5083585;28;20229;-75
2023/12/15 07:31:01;;;;;;;14.57;13.67;;;;;;;5.67;100.00;92969.22;5087787;28;20235;-75
2023/12/15 07:33:26;;;;;;;18.40;17.10;;;;;;;5.66;100.00;92972.84;5077803;28;20221;-75
2023/12/15 07:35:52;;;;;;;17.87;16.57;;;;;;;5.48;100.00;92978.31;5084931;28;20204;-75
2023/12/15 07:38:17;;;;;;;18.73;17.43;;;;;;;5.56;100.00;92977.88;5085702;28;20213;-74
2023/12/15 07:40:42;;;;;;;15.30;14.30;;;;;;;5.61;100.00;92967.59;5082378;28;20199;-75
2023/12/15 07:43:08;;;;;;;15.73;14.63;;;;;;;5.82;100.00;92982.44;5085635;28;20227;-75
2023/12/15 07:45:33;;;;;;;14.23;13.37;;;;;;;5.39;100.00;92972.75;5079184;28;20199;-76
2023/12/15 07:47:59;;;;;;;21.97;20.53;;;;;;;5.50;100.00;92990.00;5081438;28;20232;-75
2023/12/15 07:50:24;;;;;;;17.10;16.00;;;;;;;5.79;100.00;92982.88;5081797;28;20200;-74
2023/12/15 07:52:49;;;;;;;15.23;14.17;;;;;;;5.63;100.00;92992.25;5075542;28;20233;-75
2023/12/15 07:55:16;;;;;;;13.77;12.87;;;;;;;5.69;100.00;92993.09;5063701;28;20245;-75
2023/12/15 07:57:42;;;;;;;17.83;16.63;;;;;;;5.64;100.00;92996.41;5059375;28;20236;-75
2023/12/15 08:00:11;;;;;;;13.37;12.47;;;;;;;5.71;100.00;93004.78;5064635;28;20182;-75
2023/12/15 08:02:36;;;;;;;14.93;13.93;;;;;;;5.72;100.00;93002.97;5061046;28;20202;-75
2023/12/15 08:05:02;;;;;;;15.47;14.37;;;;;;;5.78;100.00;93013.16;5081229;28;20200;-75
2023/12/15 08:07:27;;;;;;;15.27;14.27;;;;;;;5.90;100.00;93018.28;5077843;28;21470;-75
2023/12/15 08:09:52;;;;;;;15.60;14.40;;;;;;;5.99;100.00;93032.38;5084347;28;20181;-76
2023/12/15 08:12:18;;;;;;;17.50;16.10;;;;;;;5.90;100.00;93044.97;5086708;28;20177;-75
2023/12/15 08:14:43;;;;;;;14.67;13.60;;;;;;;5.56;100.00;93037.44;5079715;28;20299;-75
2023/12/15 08:17:08;;;;;;;15.00;14.00;;;;;;;5.60;100.00;93044.53;5079159;28;20272;-75
2023/12/15 08:19:34;;;;;;;15.27;14.17;;;;;;;5.95;100.00;93049.41;5083337;28;20217;-75
2023/12/15 08:21:59;;;;;;;12.37;11.67;;;;;;;5.75;100.00;93046.53;5088232;28;20236;-75
2023/12/15 08:24:25;;;;;;;14.83;13.83;;;;;;;5.97;100.00;93047.38;5069051;28;20683;-74
2023/12/15 08:26:53;;;;;;;15.80;14.60;;;;;;;5.90;100.00;93047.56;5061177;28;20731;-74
2023/12/15 08:29:19;;;;;;;12.80;12.00;;;;;;;5.81;100.00;93051.56;5079765;28;20233;-74
2023/12/15 08:31:44;;;;;;;12.20;11.40;;;;;;;5.54;100.00;93027.31;5091174;28;20185;-74
2023/12/15 08:34:09;;;;;;;12.53;11.83;;;;;;;5.74;100.00;93047.56;5062415;28;20234;-74
2023/12/15 08:36:35;;;;;;;14.07;13.17;;;;;;;5.75;100.00;93049.13;5046656;28;20205;-74
2023/12/15 08:39:00;;;;;;;14.73;13.63;;;;;;;5.52;100.00;93008.69;5048727;28;20226;-74
2023/12/15 08:41:26;;;;;;;11.27;10.27;;;;;;;5.73;100.00;93027.84;5046944;28;20194;-74
2023/12/15 08:43:51;;;;;;;11.33;10.53;;;;;;;6.38;100.00;93046.88;5050106;28;20241;-74
2023/12/15 08:46:16;;;;;;;17.40;15.53;;;;;;;6.31;100.00;93054.03;5053952;28;20257;-74
2023/12/15 08:48:42;;;;;;;12.27;11.37;;;;;;;6.42;100.00;93043.56;5052678;28;20229;-75
2023/12/15 08:51:07;;;;;;;12.17;11.23;;;;;;;6.65;100.00;93055.47;5051716;28;20186;-74
2023/12/15 08:53:33;;;;;;;12.97;11.67;;;;;;;6.73;100.00;93044.66;5045524;28;20229;-73
2023/12/15 08:55:58;;;;;;;21.60;14.37;;;;;;;6.26;100.00;93048.78;5047717;28;20174;-74
2023/12/15 08:58:24;;;;;;;14.47;12.53;;;;;;;6.09;100.00;93055.81;5052082;28;20233;-74
2023/12/15 09:00:50;;;;;;;12.40;11.70;;;;;;;5.97;100.00;93042.22;5052857;28;20186;-74
2023/12/15 09:03:15;;;;;;;12.87;11.93;;;;;;;5.97;100.00;93052.56;5055851;28;20241;-74
2023/12/15 09:05:40;;;;;;;18.53;16.87;;;;;;;6.07;100.00;93044.94;5057316;28;20182;-74
2023/12/15 09:08:06;;;;;;;13.33;12.23;;;;;;;6.06;100.00;93056.31;5052155;28;20229;-74
2023/12/15 09:10:33;;;;;;;14.40;13.30;;;;;;;6.15;100.00;93021.97;5055283;28;20190;-73
2023/12/15 09:13:01;;;;;;;15.07;13.77;;;;;;;6.72;100.00;93047.50;5056274;28;20214;-74
2023/12/15 09:15:27;;;;;;;12.80;11.80;;;;;;;6.70;100.00;93047.75;5065445;28;20204;-74
2023/12/15 09:17:52;;;;;;;13.40;12.40;;;;;;;6.87;100.00;93052.81;5056064;28;20234;-74
2023/12/15 09:20:18;;;;;;;16.10;14.90;;;;;;;6.89;100.00;93059.34;5056977;28;20206;-74
2023/12/15 09:22:44;;;;;;;15.73;14.63;;;;;;;6.56;100.00;93051.72;5057220;28;20222;-74
2023/12/15 09:25:10;;;;;;;16.50;15.20;;;;;;;6.65;100.00;93052.88;5065069;28;20178;-75
2023/12/15 09:27:35;;;;;;;20.30;18.80;;;;;;;6.97;100.00;93058.91;5056539;28;20221;-74
2023/12/15 09:30:01;;;;;;;22.60;20.53;;;;;;;6.32;100.00;93047.81;5052375;28;20195;-73
2023/12/15 09:32:26;;;;;;;22.67;20.30;;;;;;;6.14;100.00;93041.13;5039674;28;20178;-73
2023/12/15 09:34:52;;;;;;;17.57;15.97;;;;;;;6.71;100.00;93046.69;5052223;28;20182;-74
2023/12/15 09:37:17;;;;;;;16.10;14.90;;;;;;;7.07;100.00;93056.41;5052134;28;20211;-73
2023/12/15 09:39:42;;;;;;;13.70;12.60;;;;;;;7.02;100.00;93045.19;5055981;28;20221;-74
2023/12/15 09:42:08;;;;;;;14.73;13.67;;;;;;;6.97;100.00;93043.34;5053441;28;20754;-74
2023/12/15 09:44:34;;;;;;;12.73;11.87;;;;;;;6.94;100.00;93049.00;5052811;28;20225;-73
2023/12/15 09:46:59;;;;;;;12.70;11.67;;;;;;;6.38;100.00;93050.22;5059494;28;20200;-74
2023/12/15 09:49:26;;;;;;;14.27;13.47;;;;;;;6.92;100.00;93051.06;5056816;28;20278;-74
2023/12/15 09:51:51;;;;;;;13.73;12.60;;;;;;;7.15;100.00;93053.38;5051425;28;20193;-74
2023/12/15 09:54:20;;;;;;;12.43;11.43;;;;;;;6.67;100.00;93057.81;5048855;28;20497;-74
2023/12/15 09:56:48;;;;;;;13.10;12.20;;;;;;;6.77;100.00;93057.94;5051547;28;20250;-74
2023/12/15 09:59:14;;;;;;;14.23;13.03;;;;;;;6.89;100.00;93040.41;5068150;28;20221;-74
2023/12/15 10:01:39;;;;;;;13.00;12.10;;;;;;;7.06;100.00;93067.81;5078292;28;20201;-74
2023/12/15 10:04:05;;;;;;;13.90;12.90;;;;;;;7.11;100.00;93057.50;5071946;28;20231;-74
2023/12/15 10:06:35;;;;;;;13.83;12.93;;;;;;;6.93;100.00;93060.41;5071494;28;20224;-74
2023/12/15 10:09:01;;;;;;;13.70;12.87;;;;;;;7.05;100.00;93055.09;5072218;28;20481;-74
2023/12/15 10:11:29;;;;;;;14.60;13.73;;;;;;;7.22;100.00;93061.72;5072717;28;20185;-73
2023/12/15 10:13:55;;;;;;;14.17;13.27;;;;;;;7.29;100.00;93064.13;5073163;28;20232;-74
2023/12/15 10:16:20;;;;;;;14.60;13.63;;;;;;;7.30;100.00;93061.28;5070694;28;20194;-74
2023/12/15 10:18:46;;;;;;;14.67;13.77;;;;;;;7.28;100.00;93065.16;5072025;28;20228;-74
2023/12/15 10:21:12;;;;;;;13.43;12.63;;;;;;;7.28;100.00;93065.94;5071593;28;20196;-75
2023/12/15 10:23:37;;;;;;;13.83;12.90;;;;;;;7.34;100.00;93069.38;5072165;28;20232;-74
2023/12/15 10:26:04;;;;;;;15.50;14.20;;;;;;;7.36;100.00;93073.28;5071450;28;20191;-74
2023/12/15 10:28:40;;;;;;;12.13;11.43;;;;;;;6.48;100.00;93072.91;5070422;28;20224;-75
2023/12/15 10:31:06;;;;;;;13.77;12.97;;;;;;;6.69;100.00;93064.34;5071402;28;20189;-74
2023/12/15 10:33:35;;;;;;;11.77;11.07;;;;;;;6.43;100.00;93067.66;5070080;28;20232;-75
2023/12/15 10:36:01;;;;;;;15.60;14.50;;;;;;;6.41;100.00;93067.13;5071185;28;20173;-74
2023/12/15 10:38:30;;;;;;;13.47;12.67;;;;;;;6.94;100.00;93077.53;5070092;28;20322;-75
2023/12/15 10:40:57;;;;;;;13.60;12.80;;;;;;;7.10;100.00;93075.88;5071465;28;20196;-74
2023/12/15 10:43:23;;;;;;;13.67;12.70;;;;;;;7.05;100.00;93074.03;5076265;28;20224;-75
2023/12/15 10:45:51;;;;;;;13.37;12.17;;;;;;;7.03;100.00;93068.31;5074242;28;20189;-75
2023/12/15 10:48:18;;;;;;;15.47;14.27;;;;;;;6.49;100.00;93077.84;5054936;28;20304;-76
2023/12/15 10:50:45;;;;;;;15.47;14.10;;;;;;;6.48;100.00;93080.69;5071429;28;20195;-75
2023/12/15 10:53:13;;;;;;;19.53;14.87;;;;;;;5.96;100.00;93087.28;5071018;28;20251;-74
2023/12/15 10:55:43;;;;;;;13.27;12.43;;;;;;;5.62;100.00;93065.00;5072429;28;20915;-75
2023/12/15 10:58:11;;;;;;;13.00;12.10;;;;;;;6.05;100.00;93101.41;5064246;28;20668;-75
2023/12/15 11:00:37;;;;;;;19.07;17.10;;;;;;;6.02;100.00;93075.97;5049364;28;20220;-74
2023/12/15 11:03:05;;;;;;;13.97;12.80;;;;;;;5.70;100.00;93087.91;5049969;28;20229;-74
2023/12/15 11:05:32;;;;;;;14.90;13.80;;;;;;;6.37;100.00;93091.97;5048357;28;20480;-75
2023/12/15 11:07:59;;;;;;;15.03;13.83;;;;;;;6.29;100.00;93092.38;5051033;28;20266;-75
2023/12/15 11:10:24;;;;;;;14.37;13.30;;;;;;;6.59;100.00;93092.75;5055599;28;20185;-74
2023/12/15 11:12:50;;;;;;;25.20;22.03;;;;;;;6.34;100.00;93095.03;5054499;28;20790;-74